»·PEaware :: TEXAN15 KSEA-KPDX

TEXAN15 :: KSEA-KPDX

FLIGHT INFORMATION

Flight Status: Arrived
Operator: Unknown
More flights by this operator :: More flights under this callsign
Pilot: Indie I. (23336)
Aircraft: BEECH AIRCRAFT T-6A TEXAN
(TEX2)
More flights by this aircraft type
Origin: KSEA Seattle-Tacoma Intl
United States
Destination: KPDX Portland Intl
United States
More flights between these airports :: More routes between these airports
Route: +SEA7 SEA HELNS6
File this flight plan on PilotEdge
Remarks: request glasr arrival
Altitude:
(Current/Filed)
19,000ft
Speed:
(Current/Filed)
210kts
Departed: 17-Jun-20 07:21 AM
Arrived: 17-Jun-20 07:55 AM
Distance/Time
Traveled:
112nm/0:34
Distance/Time
To Go:
Arrived

Flight Plot

Page will automatically refresh every two minutes.

Flight plan parsing failed; only flown route is shown


Map Options




Map Legend


Flown Route
Filed Route
Departure Airport
Arrival Airport
Navaid (VOR, NDB)
Fix

Horizontal Profiles

Position Reports

Time Latitude Longitude Heading Altitude Ground
Speed
17-Jun-20 07:00 47.455706 -122.306089 354 436ft 11kts
17-Jun-20 07:01 47.457368 -122.306145 346 436ft 19kts
17-Jun-20 07:02 47.461738 -122.306185 1 436ft 9kts
17-Jun-20 07:03 47.463531 -122.306081 2 436ft 5kts
17-Jun-20 07:04 47.464008 -122.306669 254 436ft 0kts
17-Jun-20 07:05 47.464007 -122.306673 254 436ft 0kts
17-Jun-20 07:06 47.464007 -122.306676 254 436ft 0kts
17-Jun-20 07:07 47.464006 -122.306680 254 436ft 0kts
17-Jun-20 07:08 47.464005 -122.306684 254 436ft 0kts
17-Jun-20 07:09 47.464005 -122.306688 254 436ft 0kts
17-Jun-20 07:10 47.464004 -122.306691 254 436ft 0kts
17-Jun-20 07:11 47.464003 -122.306695 254 436ft 0kts
17-Jun-20 07:12 47.464003 -122.306699 254 436ft 0kts
17-Jun-20 07:13 47.464002 -122.306703 254 436ft 0kts
17-Jun-20 07:14 47.464001 -122.306706 254 436ft 0kts
17-Jun-20 07:15 47.464000 -122.306710 254 436ft 0kts
17-Jun-20 07:16 47.464000 -122.306714 254 436ft 0kts
17-Jun-20 07:18 47.463999 -122.306718 254 436ft 0kts
17-Jun-20 07:19 47.463998 -122.306721 254 436ft 0kts
17-Jun-20 07:20 47.463517 -122.307316 249 436ft 5kts
17-Jun-20 07:21 47.438253 -122.308422 180 1423ft 163kts
17-Jun-20 07:22 47.387819 -122.312683 182 4498ft 183kts
17-Jun-20 07:23 47.335883 -122.310933 179 7771ft 189kts
17-Jun-20 07:24 47.281983 -122.311491 179 10909ft 193kts
17-Jun-20 07:25 47.226636 -122.311585 179 13648ft 204kts
17-Jun-20 07:26 47.163532 -122.310517 179 15220ft 237kts
17-Jun-20 07:27 47.101796 -122.310772 179 17952ft 221kts
17-Jun-20 07:28 47.036854 -122.308335 176 18946ft 259kts
17-Jun-20 07:29 46.962225 -122.302076 177 19168ft 272kts
17-Jun-20 07:30 46.884262 -122.296992 179 19075ft 283kts
17-Jun-20 07:31 46.805025 -122.295856 178 19144ft 284kts
17-Jun-20 07:32 46.517309 -122.287635 178 18971ft 294kts
17-Jun-20 07:33 46.403227 -122.284437 180 18648ft 286kts
17-Jun-20 07:34 46.327584 -122.285032 180 16990ft 261kts
17-Jun-20 07:35 46.257455 -122.289644 196 15452ft 247kts
17-Jun-20 07:35 46.202732 -122.314778 197 13251ft 245kts
17-Jun-20 07:37 46.131136 -122.352651 204 10456ft 230kts
17-Jun-20 07:37 46.083078 -122.384170 205 9612ft 234kts
17-Jun-20 07:39 46.015001 -122.438339 201 9787ft 243kts
17-Jun-20 07:39 45.961114 -122.465148 198 8708ft 248kts
17-Jun-20 07:40 45.898638 -122.502564 207 7715ft 237kts
17-Jun-20 07:41 45.841160 -122.552209 230 7533ft 249kts
17-Jun-20 07:42 45.823619 -122.647241 269 5745ft 246kts
17-Jun-20 07:43 45.823807 -122.738365 269 5605ft 222kts
17-Jun-20 07:44 45.816616 -122.825328 229 4080ft 218kts
17-Jun-20 07:45 45.770181 -122.863759 207 3106ft 183kts
17-Jun-20 07:46 45.728056 -122.883467 165 2505ft 150kts
17-Jun-20 07:47 45.688900 -122.848073 143 3250ft 165kts
17-Jun-20 07:48 45.673138 -122.795285 108 2660ft 143kts
17-Jun-20 07:49 45.656014 -122.752604 121 2025ft 116kts
17-Jun-20 07:50 45.639884 -122.713222 115 1968ft 113kts
17-Jun-20 07:51 45.624598 -122.673730 118 1297ft 112kts
17-Jun-20 07:52 45.609282 -122.634634 117 710ft 111kts
17-Jun-20 07:53 45.595022 -122.596231 118 81ft 105kts
17-Jun-20 07:54 45.587115 -122.577292 211 33ft 9kts

Navigation Log

Ident Type
Flight plan parsing failed, navigation log unavailable